createdAt,value
2023-03-21T00:00:59.452Z,10.29
2023-03-21T00:04:02.486Z,10.44
2023-03-21T00:07:04.962Z,10.53
2023-03-21T00:10:15.384Z,10.57
2023-03-21T00:13:20.505Z,10.65
2023-03-21T00:16:33.168Z,10.81
2023-03-21T00:19:38.545Z,10.68
2023-03-21T00:22:42.009Z,10.60
2023-03-21T00:25:44.293Z,10.59
2023-03-21T00:28:46.983Z,10.55
2023-03-21T00:31:49.409Z,10.38
2023-03-21T00:35:13.681Z,10.36
2023-03-21T00:38:15.360Z,10.29
2023-03-21T00:41:31.678Z,10.20
2023-03-21T00:44:40.244Z,10.10
2023-03-21T00:47:43.629Z,10.03
2023-03-21T00:50:47.883Z,10.03
2023-03-21T00:53:50.539Z,9.94
2023-03-21T00:56:53.079Z,10.00
2023-03-21T00:59:58.160Z,10.00
2023-03-21T01:03:14.523Z,9.96
2023-03-21T01:06:27.360Z,10.00
2023-03-21T01:09:29.732Z,10.02
2023-03-21T01:12:33.588Z,9.97
2023-03-21T01:15:43.599Z,9.97
2023-03-21T01:18:46.579Z,9.97
2023-03-21T01:21:49.045Z,9.93
2023-03-21T01:24:58.656Z,9.83
2023-03-21T01:28:05.793Z,9.80
2023-03-21T01:31:09.722Z,9.82
2023-03-21T01:34:12.333Z,9.84
2023-03-21T01:37:15.014Z,9.83
2023-03-21T01:40:19.656Z,9.83
2023-03-21T01:43:25.597Z,9.83
2023-03-21T01:46:32.288Z,9.93
2023-03-21T01:49:46.435Z,9.91
2023-03-21T01:52:50.198Z,9.95
2023-03-21T01:55:53.851Z,9.97
2023-03-21T01:59:03.096Z,9.96
2023-03-21T02:02:09.904Z,9.97
2023-03-21T02:05:13.295Z,9.94
2023-03-21T02:08:16.454Z,9.97
2023-03-21T02:11:19.308Z,9.98
2023-03-21T02:14:28.912Z,9.96
2023-03-21T02:17:33.391Z,9.98
2023-03-21T02:20:54.432Z,9.99
2023-03-21T02:24:12.092Z,9.97
2023-03-21T02:27:14.418Z,9.90
2023-03-21T02:30:37.407Z,9.91
2023-03-21T02:34:04.379Z,9.99
2023-03-21T02:37:07.437Z,10.00
2023-03-21T02:40:28.592Z,9.98
2023-03-21T02:43:51.758Z,9.95
2023-03-21T02:47:06.877Z,9.86
2023-03-21T02:50:13.788Z,9.94
2023-03-21T02:53:18.563Z,10.02
2023-03-21T02:56:22.718Z,10.01
2023-03-21T02:59:29.043Z,9.94
2023-03-21T03:02:32.384Z,9.95
2023-03-21T03:05:37.293Z,9.85
2023-03-21T03:09:01.105Z,9.73
2023-03-21T03:12:11.590Z,9.72
2023-03-21T03:15:36.095Z,9.62
2023-03-21T03:18:39.852Z,9.59
2023-03-21T03:21:44.525Z,9.55
2023-03-21T03:24:56.148Z,9.51
2023-03-21T03:27:59.027Z,9.40
2023-03-21T03:31:09.258Z,9.37
2023-03-21T03:34:15.279Z,9.38
2023-03-21T03:37:21.790Z,9.37
2023-03-21T03:40:26.870Z,9.44
2023-03-21T03:43:43.740Z,9.32
2023-03-21T03:46:51.208Z,9.36
2023-03-21T03:50:01.367Z,9.37
2023-03-21T03:53:18.543Z,9.37
2023-03-21T03:56:22.420Z,9.49
2023-03-21T03:59:25.990Z,9.52
2023-03-21T04:02:30.292Z,9.46
2023-03-21T04:05:33.322Z,9.47
2023-03-21T04:08:37.655Z,9.45
2023-03-21T04:11:40.645Z,9.40
2023-03-21T04:14:46.027Z,9.34
2023-03-21T04:17:50.837Z,9.32
2023-03-21T04:20:53.410Z,9.31
2023-03-21T04:23:56.295Z,9.17
2023-03-21T04:26:58.800Z,9.19
2023-03-21T04:30:02.614Z,9.20
2023-03-21T04:33:06.320Z,9.17
2023-03-21T04:36:09.530Z,9.14
2023-03-21T04:39:13.661Z,9.19
2023-03-21T04:42:18.570Z,9.19
2023-03-21T04:45:20.868Z,9.20
2023-03-21T04:48:24.570Z,9.01
2023-03-21T04:51:27.313Z,8.97
2023-03-21T04:54:30.084Z,8.80
2023-03-21T04:57:32.525Z,8.73
2023-03-21T05:00:39.083Z,8.85
2023-03-21T05:03:41.854Z,9.01
2023-03-21T05:06:45.903Z,9.16
2023-03-21T05:09:48.283Z,9.26
2023-03-21T05:12:52.426Z,9.34
2023-03-21T05:15:55.469Z,9.40
2023-03-21T05:19:05.069Z,9.54
2023-03-21T05:22:09.951Z,9.69
2023-03-21T05:25:13.729Z,9.87
2023-03-21T05:28:20.602Z,10.02
2023-03-21T05:31:24.151Z,10.14
2023-03-21T05:34:28.266Z,10.25
2023-03-21T05:37:31.139Z,10.36
2023-03-21T05:40:34.038Z,10.36
2023-03-21T05:43:37.706Z,10.49
2023-03-21T05:46:40.343Z,10.52
2023-03-21T05:49:44.344Z,10.59
2023-03-21T05:52:46.829Z,10.66
2023-03-21T05:55:49.494Z,10.74
2023-03-21T05:58:53.588Z,10.87
2023-03-21T06:01:57.403Z,11.02
2023-03-21T06:05:00.728Z,11.15
2023-03-21T06:08:03.178Z,11.21
2023-03-21T06:11:07.045Z,11.17
2023-03-21T06:14:10.832Z,11.31
2023-03-21T06:17:13.705Z,11.43
2023-03-21T06:20:16.592Z,11.55
2023-03-21T06:23:19.649Z,11.57
2023-03-21T06:26:23.393Z,11.81
2023-03-21T06:29:26.786Z,11.97
2023-03-21T06:32:29.387Z,12.24
2023-03-21T06:35:32.534Z,12.71
2023-03-21T06:38:38.003Z,12.98
2023-03-21T06:41:41.628Z,13.47
2023-03-21T06:44:44.065Z,13.98
2023-03-21T06:47:47.358Z,14.70
2023-03-21T06:50:51.014Z,15.73
2023-03-21T06:53:54.561Z,17.71
2023-03-21T06:56:57.365Z,17.93
2023-03-21T07:00:01.543Z,18.18
2023-03-21T07:03:04.034Z,17.94
2023-03-21T07:06:08.643Z,17.40
2023-03-21T07:09:11.153Z,18.15
2023-03-21T07:12:13.901Z,19.28
2023-03-21T07:15:17.537Z,18.17
2023-03-21T07:18:20.599Z,16.49
2023-03-21T07:21:23.636Z,14.96
2023-03-21T07:24:27.400Z,13.91
2023-03-21T07:27:29.707Z,14.05
2023-03-21T07:30:32.579Z,14.29
2023-03-21T07:33:38.192Z,16.74
2023-03-21T07:36:40.860Z,19.18
2023-03-21T07:39:43.371Z,20.00
2023-03-21T07:42:48.513Z,20.49
2023-03-21T07:45:59.690Z,20.18
2023-03-21T07:49:02.975Z,22.11
2023-03-21T07:52:06.817Z,26.02
2023-03-21T07:55:09.843Z,26.13
2023-03-21T07:58:12.288Z,25.25
2023-03-21T08:01:14.945Z,23.80
2023-03-21T08:04:17.753Z,22.69
2023-03-21T08:07:20.064Z,22.86
2023-03-21T08:10:23.100Z,23.27
2023-03-21T08:13:26.151Z,23.67
2023-03-21T08:16:29.024Z,24.77
2023-03-21T08:19:31.451Z,22.07
2023-03-21T08:22:35.924Z,22.12
2023-03-21T08:25:38.930Z,22.83
2023-03-21T08:28:41.923Z,22.11
2023-03-21T08:31:44.821Z,21.52
2023-03-21T08:34:47.435Z,20.25
2023-03-21T08:37:49.916Z,20.40
2023-03-21T08:40:52.588Z,21.19
2023-03-21T08:43:55.022Z,21.09
2023-03-21T08:46:57.897Z,23.30
2023-03-21T08:50:00.642Z,22.80
2023-03-21T08:53:03.440Z,22.32
2023-03-21T08:56:06.358Z,22.39
2023-03-21T08:59:10.192Z,20.14
2023-03-21T09:02:16.237Z,19.00
2023-03-21T09:05:19.955Z,17.94
2023-03-21T09:08:23.498Z,18.02
2023-03-21T09:11:26.170Z,18.32
2023-03-21T09:14:29.330Z,18.51
2023-03-21T09:17:32.915Z,18.55
2023-03-21T09:20:38.421Z,18.24
2023-03-21T09:23:41.697Z,17.83
2023-03-21T09:26:44.667Z,17.51
2023-03-21T09:29:47.463Z,17.78
2023-03-21T09:32:50.457Z,18.03
2023-03-21T09:35:53.844Z,18.14
2023-03-21T09:38:57.241Z,17.90
2023-03-21T09:42:07.626Z,17.61
2023-03-21T09:45:18.067Z,17.83
2023-03-21T09:48:30.264Z,17.64
2023-03-21T09:51:35.805Z,17.70
2023-03-21T09:54:40.673Z,17.89
2023-03-21T09:57:43.993Z,17.91
2023-03-21T10:00:49.793Z,17.74
2023-03-21T10:03:54.444Z,17.65
2023-03-21T10:06:59.386Z,17.73
2023-03-21T10:10:04.408Z,17.83
2023-03-21T10:13:13.883Z,17.81
2023-03-21T10:16:19.881Z,17.77
2023-03-21T10:19:23.386Z,17.81
2023-03-21T10:22:25.977Z,17.95
2023-03-21T10:25:32.084Z,17.92
2023-03-21T10:28:52.448Z,17.82
2023-03-21T10:31:55.919Z,18.21
2023-03-21T10:34:59.237Z,18.44
2023-03-21T10:38:01.652Z,18.37
2023-03-21T10:41:04.365Z,18.34
2023-03-21T10:44:14.736Z,18.74
2023-03-21T10:47:21.600Z,18.74
2023-03-21T10:50:29.506Z,18.85
2023-03-21T10:53:35.072Z,19.02
2023-03-21T10:56:57.749Z,19.20
2023-03-21T11:00:02.473Z,19.13
2023-03-21T11:03:07.092Z,19.42
2023-03-21T11:06:15.280Z,19.11
2023-03-21T11:09:20.334Z,18.89
2023-03-21T11:12:30.736Z,19.03
2023-03-21T11:15:48.969Z,18.93
2023-03-21T11:18:56.610Z,19.01
2023-03-21T11:22:00.062Z,19.12
2023-03-21T11:25:06.459Z,19.21
2023-03-21T11:28:12.340Z,19.07
2023-03-21T11:31:17.211Z,19.15
2023-03-21T11:34:53.284Z,19.64
2023-03-21T11:37:56.722Z,19.82
2023-03-21T11:41:02.786Z,19.29
2023-03-21T11:44:05.582Z,19.51
2023-03-21T11:47:09.338Z,19.11
2023-03-21T11:50:15.701Z,18.75
2023-03-21T11:53:18.250Z,18.84
2023-03-21T11:56:37.488Z,18.55
2023-03-21T12:00:04.553Z,18.75
2023-03-21T12:03:30.755Z,19.17
2023-03-21T12:06:42.760Z,19.33
2023-03-21T12:09:53.022Z,18.69
2023-03-21T12:13:01.412Z,18.07
2023-03-21T12:16:04.164Z,17.87
2023-03-21T12:19:24.966Z,17.97
2023-03-21T12:22:30.231Z,17.62
2023-03-21T12:25:36.705Z,17.75
2023-03-21T12:28:47.002Z,17.90
2023-03-21T12:31:49.676Z,17.90
2023-03-21T12:35:10.693Z,17.92
2023-03-21T12:38:18.125Z,18.31
2023-03-21T12:41:39.448Z,19.14
2023-03-21T12:44:45.483Z,19.85
2023-03-21T12:47:51.778Z,20.66
2023-03-21T12:50:56.263Z,20.34
2023-03-21T12:54:13.427Z,20.09
2023-03-21T12:57:19.057Z,19.56
2023-03-21T13:00:25.509Z,19.19
2023-03-21T13:03:40.272Z,18.75
2023-03-21T13:06:43.437Z,18.67
2023-03-21T13:09:46.784Z,18.30
2023-03-21T13:12:49.537Z,17.84
2023-03-21T13:15:55.420Z,17.43
2023-03-21T13:19:02.951Z,17.21
2023-03-21T13:22:07.556Z,17.19
2023-03-21T13:25:17.700Z,17.54
2023-03-21T13:28:27.490Z,17.90
2023-03-21T13:31:33.879Z,18.54
2023-03-21T13:34:44.739Z,18.65
2023-03-21T13:37:52.717Z,18.47
2023-03-21T13:41:01.084Z,18.58
2023-03-21T13:44:03.393Z,18.54
2023-03-21T13:47:22.377Z,18.15
2023-03-21T13:50:26.399Z,18.49
2023-03-21T13:53:33.015Z,18.27
2023-03-21T13:56:47.473Z,18.21
2023-03-21T13:59:50.273Z,18.05
2023-03-21T14:02:56.180Z,18.05
2023-03-21T14:05:59.069Z,18.06
2023-03-21T14:09:02.437Z,18.08
2023-03-21T14:12:08.220Z,17.91
2023-03-21T14:15:18.022Z,17.88
2023-03-21T14:18:34.918Z,17.80
2023-03-21T14:21:48.280Z,17.84
2023-03-21T14:24:58.148Z,17.75
2023-03-21T14:28:01.700Z,17.58
2023-03-21T14:31:04.745Z,17.74
2023-03-21T14:34:07.279Z,17.80
2023-03-21T14:37:11.284Z,17.96
2023-03-21T14:40:22.571Z,18.07
2023-03-21T14:43:26.031Z,18.09
2023-03-21T14:46:28.421Z,18.02
2023-03-21T14:49:32.993Z,17.99
2023-03-21T14:52:35.531Z,17.85
2023-03-21T14:55:42.264Z,17.84
2023-03-21T14:58:45.651Z,17.73
2023-03-21T15:01:49.716Z,17.82
2023-03-21T15:04:53.566Z,17.85
2023-03-21T15:07:58.365Z,17.69
2023-03-21T15:11:09.404Z,17.68
2023-03-21T15:14:14.196Z,17.74
2023-03-21T15:17:16.723Z,17.82
2023-03-21T15:20:21.969Z,17.67
2023-03-21T15:23:30.617Z,17.58
2023-03-21T15:26:33.305Z,17.48
2023-03-21T15:29:37.030Z,17.23
2023-03-21T15:32:39.861Z,16.95
2023-03-21T15:35:54.140Z,16.67
2023-03-21T15:38:57.387Z,16.47
2023-03-21T15:42:20.127Z,16.39
2023-03-21T15:45:24.751Z,16.32
2023-03-21T15:48:28.190Z,16.18
2023-03-21T15:51:31.891Z,16.16
2023-03-21T15:54:37.080Z,16.11
2023-03-21T15:57:47.493Z,16.03
2023-03-21T16:00:54.942Z,15.88
2023-03-21T16:04:02.155Z,15.81
2023-03-21T16:07:15.446Z,15.69
2023-03-21T16:10:28.077Z,15.63
2023-03-21T16:13:30.356Z,15.53
2023-03-21T16:16:33.124Z,15.45
2023-03-21T16:19:35.877Z,15.42
2023-03-21T16:22:39.700Z,15.28
2023-03-21T16:25:43.789Z,15.19
2023-03-21T16:28:46.528Z,15.13
2023-03-21T16:31:50.411Z,15.07
2023-03-21T16:34:53.785Z,14.95
2023-03-21T16:37:56.157Z,14.88
2023-03-21T16:41:00.896Z,14.84
2023-03-21T16:44:03.196Z,14.71
2023-03-21T16:47:16.809Z,14.62
2023-03-21T16:50:31.659Z,14.52
2023-03-21T16:53:34.383Z,14.37
2023-03-21T16:56:38.983Z,14.28
2023-03-21T16:59:42.830Z,14.20
2023-03-21T17:02:47.851Z,14.11
2023-03-21T17:05:50.559Z,14.12
2023-03-21T17:08:53.457Z,14.02
2023-03-21T17:11:56.294Z,13.93
2023-03-21T17:14:58.607Z,13.82
2023-03-21T17:18:01.485Z,13.72
2023-03-21T17:21:10.651Z,13.62
2023-03-21T17:24:13.758Z,13.58
2023-03-21T17:27:18.308Z,13.58
2023-03-21T17:30:31.943Z,13.53
2023-03-21T17:33:34.319Z,13.37
2023-03-21T17:36:38.083Z,13.36
2023-03-21T17:39:42.918Z,13.25
2023-03-21T17:42:46.363Z,13.17
2023-03-21T17:45:48.650Z,13.10
2023-03-21T17:48:51.502Z,13.09
2023-03-21T17:51:54.449Z,12.99
2023-03-21T17:54:57.070Z,13.02
2023-03-21T17:57:59.652Z,12.96
2023-03-21T18:01:02.322Z,12.90
2023-03-21T18:04:05.475Z,12.82
2023-03-21T18:07:13.129Z,12.84
2023-03-21T18:10:18.988Z,12.82
2023-03-21T18:13:21.434Z,12.71
2023-03-21T18:16:25.697Z,12.60
2023-03-21T18:19:28.319Z,12.55
2023-03-21T18:22:31.503Z,12.44
2023-03-21T18:25:33.859Z,12.38
2023-03-21T18:28:41.342Z,12.33
2023-03-21T18:31:51.586Z,12.25
2023-03-21T18:35:00.488Z,12.25
2023-03-21T18:38:03.329Z,12.23
2023-03-21T18:41:07.653Z,12.10
2023-03-21T18:44:17.506Z,12.02
2023-03-21T18:47:27.872Z,11.97
2023-03-21T18:50:31.017Z,11.87
2023-03-21T18:53:33.647Z,11.89
2023-03-21T18:57:27.427Z,11.68
2023-03-21T19:00:01.100Z,11.69
2023-03-21T19:03:18.702Z,11.64
2023-03-21T19:06:24.275Z,11.62
2023-03-21T19:09:30.927Z,11.62
2023-03-21T19:12:34.202Z,11.49
2023-03-21T19:15:36.765Z,11.43
2023-03-21T19:18:53.962Z,11.44
2023-03-21T19:21:59.258Z,11.39
2023-03-21T19:25:01.932Z,11.36
2023-03-21T19:28:04.641Z,11.25
2023-03-21T19:31:08.411Z,11.11
2023-03-21T19:34:11.253Z,11.11
2023-03-21T19:37:13.862Z,10.95
2023-03-21T19:40:16.494Z,10.84
2023-03-21T19:43:33.056Z,10.86
2023-03-21T19:46:36.021Z,10.85
2023-03-21T19:50:15.819Z,10.95
2023-03-21T19:53:03.325Z,10.97
2023-03-21T19:56:19.628Z,10.89
2023-03-21T19:59:22.971Z,10.89
2023-03-21T20:02:35.655Z,11.02
2023-03-21T20:05:39.514Z,10.93
2023-03-21T20:12:05.716Z,10.94
2023-03-21T20:15:17.219Z,10.77
2023-03-21T20:18:24.058Z,10.73
2023-03-21T20:21:32.455Z,10.79
2023-03-21T20:24:38.579Z,10.67
2023-03-21T20:27:43.392Z,10.72
2023-03-21T20:30:51.375Z,10.74
2023-03-21T20:33:53.987Z,10.79
2023-03-21T20:36:58.153Z,10.65
2023-03-21T20:40:00.850Z,10.65
2023-03-21T20:43:33.448Z,10.64
2023-03-21T20:46:28.403Z,10.50
2023-03-21T20:49:31.548Z,10.53
2023-03-21T20:53:00.809Z,10.39
2023-03-21T20:55:57.651Z,10.31
2023-03-21T20:59:15.250Z,10.42
2023-03-21T21:02:18.273Z,10.48
2023-03-21T21:05:31.493Z,10.49
2023-03-21T21:08:36.495Z,10.52
2023-03-21T21:15:02.122Z,10.55
2023-03-21T21:18:07.452Z,10.57
2023-03-21T21:21:10.668Z,10.45
2023-03-21T21:24:14.562Z,10.45
2023-03-21T21:27:17.405Z,10.41
2023-03-21T21:30:19.744Z,10.43
2023-03-21T21:33:22.581Z,10.35
2023-03-21T21:36:25.006Z,10.39
2023-03-21T21:39:27.648Z,10.51
2023-03-21T21:42:29.982Z,10.34
2023-03-21T21:45:32.596Z,10.37
2023-03-21T21:48:35.050Z,10.40
2023-03-21T21:51:38.154Z,10.44
2023-03-21T21:55:02.166Z,10.47
2023-03-21T21:58:08.422Z,10.53
2023-03-21T22:01:10.822Z,10.50
2023-03-21T22:04:14.585Z,10.37
2023-03-21T22:07:17.002Z,10.29
2023-03-21T22:10:20.731Z,10.18
2023-03-21T22:13:23.255Z,10.12
2023-03-21T22:16:26.250Z,10.17
2023-03-21T22:19:28.609Z,10.00
2023-03-21T22:22:32.175Z,9.75
2023-03-21T22:25:34.466Z,9.43
2023-03-21T22:28:40.529Z,9.18
2023-03-21T22:31:44.189Z,9.00
2023-03-21T22:34:46.786Z,8.95
2023-03-21T22:37:49.082Z,9.03
2023-03-21T22:40:54.826Z,9.00
2023-03-21T22:43:57.207Z,8.99
2023-03-21T22:47:00.283Z,8.80
2023-03-21T22:50:02.576Z,8.70
2023-03-21T22:53:05.282Z,8.51
2023-03-21T22:56:08.128Z,8.33
2023-03-21T22:59:11.289Z,8.14
2023-03-21T23:02:14.416Z,8.00
2023-03-21T23:05:17.203Z,8.01
2023-03-21T23:08:19.566Z,7.93
2023-03-21T23:11:22.281Z,7.80
2023-03-21T23:14:24.611Z,7.67
2023-03-21T23:17:27.218Z,7.55
2023-03-21T23:20:29.503Z,7.46
2023-03-21T23:23:36.632Z,7.40
2023-03-21T23:26:39.197Z,7.48
2023-03-21T23:29:43.871Z,7.42
2023-03-21T23:32:47.008Z,7.36
2023-03-21T23:35:49.731Z,7.30
2023-03-21T23:38:52.732Z,7.24
2023-03-21T23:41:55.561Z,7.20
2023-03-21T23:44:57.865Z,7.21
2023-03-21T23:48:00.834Z,7.28
2023-03-21T23:51:03.415Z,7.29
2023-03-21T23:54:06.100Z,7.29
2023-03-21T23:57:08.581Z,7.18
